Aviation Digital Data Service (ADDS)

Output produced by METARs form (1825 UTC 22 November 2017)
found at http://www.aviationweather.gov/adds/metars/
 
OAIX 221758Z 00000KT 8000 HZ CLR 02/M02 A3015 RMK AO2A SLP177 T00201025 10124 20009 52006
TAF OAIX 221500Z 2215/2321 VRB06KT 8000 HZ SCT200 QNH3012INS 
     BECMG 2223/2224 VRB06KT 6000 HZ SCT150 QNH3016INS 
     TEMPO 2303/2305 4000 HZ 
     BECMG 2306/2307 VRB06KT 8000 HZ SKC QNH3010INS TX14/2310Z TNM03/2301Z
       
OAHR 221655Z 00000KT 9999 SCT080 14/M09 Q1017 RMK BLU
TAF OAHR 221700Z 2218/2318 VRB03KT 9999 SCT080 
     BECMG 2308/2310 19015G25KT 8000 BKN080 
     BECMG 2312/2314 19008KT CAVOK
       
OAJL 221755Z VRB03KT 8000 BR SCT200 09/05 A3008 RMK AO2A SLP180 T00900048 10219 20112 52005
TAF OAJL 221600Z 2216/2322 VRB06KT 5000 HZ SCT200 QNH3004INS 
     BECMG 2218/2219 VRB06KT 8000 HZ SCT150 QNH3007INS 
     BECMG 2303/2304 VRB06KT 6000 HZ SKC QNH3002INS TX22/2310Z TN06/2302Z
       
OAKB 221750Z 00000KT 2500 HZ NSC 03/M06 Q1022 NOSIG RMK A3020 YLO YLO
TAF COR OAKB 221705Z 2218/2318 VRB02KT 2500 NSC 
     PROB40 2218/2221 1200 BR FU 
     BECMG 2222/2224 8000 NSW 
     TEMPO 2302/2305 4500 FU 
     BECMG 2306/2308 CAVOK 
     BECMG 2313/2314 4000 FU NSC 
     BECMG 2315/2317 2000
       
OAKN 221755Z 07002KT 9999 SCT150 BKN190 11/M07 A3006 RMK AO2A SLP157 Q1017 DA3500 50006
TAF OAKN 221500Z 2215/2321 06006KT 9999 SCT150 BKN200 QNH3002INS 
     BECMG 2311/2312 09009KT 9999 BKN180 QNH2998INS TX18/2309Z TN05/2223Z
       
OAMS 221750Z 21004KT 9999 FEW150 BKN250 13/M10 Q1012 BLU+BLU+
TAF OAMS 221705Z 2218/2318 18008KT 9999 NSW FEW180 SCT250 
     TEMPO 2302/2306 VRB03KT 3000 FU BKN150 BKN200 
     BECMG 2305/2307 06010KT 9999 NSW SCT150 BKN200 
     BECMG 2314/2316 21008KT 9999 NSW BKN180 BKN250